Terminal Aerodrome Forecast
Issued by NWS

Home | Current Version | Previous Version | Text Only | Print | Product List | Glossary On
Versions: 1 2 3 4 5 6 7 8 9 10 11 12 13 14 15 16 17 18 19 20 21
000
FTUS41 KRLX 030520
TAFCKB
TAF
KCKB 030520Z 0306/0406 00000KT P6SM SKC
     FM031400 22006KT P6SM FEW050
     FM031700 23010G15KT P6SM FEW050
     FM032000 22009G15KT P6SM VCTS SCT045CB
     FM032300 21005KT 6SM BR VCTS BKN045CB
     FM040300 19004KT 5SM SHRA HZ VCTS BKN030CB=

USA.gov is the U.S. government's official web portal to all federal, state and local government web resources and services.